createdAt,value
2023-03-13T00:02:52.324Z,5.95
2023-03-13T00:05:56.793Z,5.43
2023-03-13T00:09:15.293Z,5.47
2023-03-13T00:12:23.327Z,5.70
2023-03-13T00:15:38.298Z,6.15
2023-03-13T00:18:49.520Z,6.53
2023-03-13T00:21:58.319Z,5.77
2023-03-13T00:25:13.309Z,5.95
2023-03-13T00:28:15.093Z,5.85
2023-03-13T00:31:32.414Z,5.87
2023-03-13T00:34:41.289Z,5.07
2023-03-13T00:37:49.849Z,5.87
2023-03-13T00:41:09.290Z,5.28
2023-03-13T00:44:24.372Z,5.78
2023-03-13T00:47:32.892Z,5.53
2023-03-13T00:50:54.309Z,5.80
2023-03-13T00:54:10.318Z,5.30
2023-03-13T00:57:12.270Z,5.22
2023-03-13T01:00:28.285Z,5.35
2023-03-13T01:03:38.693Z,6.25
2023-03-13T01:06:53.368Z,5.28
2023-03-13T01:10:01.354Z,5.93
2023-03-13T01:13:16.310Z,6.05
2023-03-13T01:16:27.331Z,5.50
2023-03-13T01:19:36.067Z,5.97
2023-03-13T01:22:45.384Z,5.80
2023-03-13T01:26:02.349Z,5.80
2023-03-13T01:29:04.239Z,5.97
2023-03-13T01:32:19.362Z,6.05
2023-03-13T01:35:24.396Z,6.28
2023-03-13T01:38:39.302Z,5.78
2023-03-13T01:41:47.334Z,5.50
2023-03-13T01:45:04.326Z,5.12
2023-03-13T01:48:06.474Z,5.25
2023-03-13T01:51:48.305Z,5.70
2023-03-13T01:55:09.378Z,5.35
2023-03-13T01:58:25.315Z,5.17
2023-03-13T02:01:27.912Z,4.68
2023-03-13T02:04:48.392Z,4.72
2023-03-13T02:07:56.762Z,4.60
2023-03-13T02:11:26.387Z,4.78
2023-03-13T02:14:37.379Z,4.60
2023-03-13T02:17:47.857Z,4.45
2023-03-13T02:20:59.349Z,4.53
2023-03-13T02:24:25.304Z,4.22
2023-03-13T02:27:27.181Z,4.90
2023-03-13T02:30:45.328Z,4.23
2023-03-13T02:33:47.178Z,4.70
2023-03-13T02:37:05.374Z,4.18
2023-03-13T02:40:21.742Z,4.80
2023-03-13T02:43:40.418Z,4.53
2023-03-13T02:46:54.366Z,4.50
2023-03-13T02:50:16.341Z,4.40
2023-03-13T02:53:32.388Z,5.28
2023-03-13T02:56:43.327Z,4.82
2023-03-13T02:59:52.075Z,5.65
2023-03-13T03:03:01.344Z,5.07
2023-03-13T03:06:10.060Z,5.97
2023-03-13T03:09:18.358Z,5.60
2023-03-13T03:12:33.419Z,5.60
2023-03-13T03:15:35.169Z,5.55
2023-03-13T03:18:51.502Z,5.17
2023-03-13T03:21:53.286Z,5.30
2023-03-13T03:25:08.392Z,5.15
2023-03-13T03:28:10.192Z,5.10
2023-03-13T03:31:25.474Z,4.90
2023-03-13T03:34:34.210Z,5.07
2023-03-13T03:37:42.419Z,4.70
2023-03-13T03:40:51.325Z,5.53
2023-03-13T03:44:07.442Z,4.68
2023-03-13T03:47:16.125Z,5.70
2023-03-13T03:50:31.429Z,5.00
2023-03-13T03:53:46.429Z,4.75
2023-03-13T03:56:54.424Z,5.57
2023-03-13T04:00:04.231Z,5.10
2023-03-13T04:03:15.504Z,5.97
2023-03-13T04:06:39.437Z,5.60
2023-03-13T04:09:54.407Z,5.28
2023-03-13T04:12:56.470Z,6.18
2023-03-13T04:16:15.464Z,5.90
2023-03-13T04:19:24.189Z,5.43
2023-03-13T04:22:33.377Z,5.33
2023-03-13T04:25:42.024Z,5.80
2023-03-13T04:28:50.390Z,6.03
2023-03-13T04:31:59.190Z,5.90
2023-03-13T04:35:07.423Z,5.93
2023-03-13T04:38:15.984Z,6.23
2023-03-13T04:41:30.449Z,5.95
2023-03-13T04:44:38.421Z,6.68
2023-03-13T04:47:47.425Z,6.70
2023-03-13T04:51:03.457Z,7.07
2023-03-13T04:54:12.832Z,6.50
2023-03-13T04:57:21.411Z,6.40
2023-03-13T05:00:36.370Z,6.10
2023-03-13T05:03:38.151Z,5.72
2023-03-13T05:06:52.414Z,6.60
2023-03-13T05:10:01.197Z,7.30
2023-03-13T05:13:10.425Z,6.95
2023-03-13T05:16:19.219Z,6.68
2023-03-13T05:19:27.413Z,6.62
2023-03-13T05:22:42.470Z,6.70
2023-03-13T05:25:51.074Z,6.77
2023-03-13T05:28:59.449Z,6.62
2023-03-13T05:32:08.006Z,7.05
2023-03-13T05:35:16.422Z,7.65
2023-03-13T05:38:25.551Z,7.30
2023-03-13T05:41:34.491Z,5.87
2023-03-13T05:44:43.058Z,7.12
2023-03-13T05:47:51.449Z,7.28
2023-03-13T05:51:13.539Z,6.85
2023-03-13T05:54:21.440Z,6.87
2023-03-13T05:57:36.413Z,6.23
2023-03-13T06:00:39.445Z,6.47
2023-03-13T06:03:54.615Z,6.72
2023-03-13T06:06:56.559Z,7.57
2023-03-13T06:10:12.478Z,7.62
2023-03-13T06:13:21.323Z,6.73
2023-03-13T06:16:36.592Z,7.15
2023-03-13T06:19:53.451Z,7.78
2023-03-13T06:23:01.948Z,6.47
2023-03-13T06:26:16.425Z,7.37
2023-03-13T06:29:25.188Z,6.83
2023-03-13T06:32:34.625Z,6.37
2023-03-13T06:35:55.676Z,6.43
2023-03-13T06:39:12.441Z,7.28
2023-03-13T06:42:14.426Z,6.80
2023-03-13T06:45:29.442Z,8.30
2023-03-13T06:48:31.407Z,6.82
2023-03-13T06:51:53.553Z,6.82
2023-03-13T06:55:08.454Z,6.40
2023-03-13T06:58:21.508Z,6.72
2023-03-13T07:01:43.506Z,5.90
2023-03-13T07:04:58.482Z,6.18
2023-03-13T07:08:00.283Z,6.40
2023-03-13T07:11:17.493Z,6.22
2023-03-13T07:14:19.303Z,6.95
2023-03-13T07:17:34.545Z,6.27
2023-03-13T07:20:43.557Z,6.22
2023-03-13T07:23:52.645Z,5.65
2023-03-13T07:27:08.343Z,5.78
2023-03-13T07:30:17.410Z,5.07
2023-03-13T07:33:26.507Z,5.50
2023-03-13T07:36:35.084Z,5.78
2023-03-13T07:39:43.535Z,5.43
2023-03-13T07:42:52.097Z,5.68
2023-03-13T07:46:09.741Z,5.22
2023-03-13T07:49:19.494Z,5.63
2023-03-13T07:52:41.580Z,5.32
2023-03-13T07:55:50.473Z,5.57
2023-03-13T07:58:59.301Z,5.62
2023-03-13T08:02:08.648Z,5.85
2023-03-13T08:05:17.350Z,5.90
2023-03-13T08:08:27.489Z,5.43
2023-03-13T08:11:38.166Z,5.45
2023-03-13T08:14:46.457Z,5.45
2023-03-13T08:18:03.568Z,5.47
2023-03-13T08:21:14.506Z,5.43
2023-03-13T08:24:23.170Z,6.15
2023-03-13T08:27:37.513Z,6.32
2023-03-13T08:31:24.556Z,6.22
2023-03-13T08:34:40.733Z,5.90
2023-03-13T08:37:52.476Z,6.70
2023-03-13T08:41:07.497Z,7.18
2023-03-13T08:44:19.491Z,6.65
2023-03-13T08:47:34.533Z,6.28
2023-03-13T08:51:14.540Z,5.80
2023-03-13T08:54:57.484Z,6.57
2023-03-13T08:58:12.509Z,6.35
2023-03-13T09:01:21.483Z,5.78
2023-03-13T09:04:32.206Z,8.13
2023-03-13T09:07:41.500Z,6.50
2023-03-13T09:11:10.564Z,6.47
2023-03-13T09:14:19.330Z,13.38
2023-03-13T09:17:27.568Z,6.60
2023-03-13T09:20:36.227Z,5.87
2023-03-13T09:23:45.529Z,5.87
2023-03-13T09:27:01.712Z,6.30
2023-03-13T09:30:04.194Z,6.40
2023-03-13T09:33:19.523Z,6.15
2023-03-13T09:36:28.891Z,5.65
2023-03-13T09:39:43.541Z,5.60
2023-03-13T09:42:56.545Z,6.33
2023-03-13T09:46:29.595Z,6.40
2023-03-13T09:49:48.588Z,6.05
2023-03-13T09:53:12.564Z,7.97
2023-03-13T09:56:25.157Z,5.95
2023-03-13T09:59:53.497Z,6.37
2023-03-13T10:02:58.201Z,5.10
2023-03-13T10:06:22.509Z,5.68
2023-03-13T10:09:38.527Z,5.28
2023-03-13T10:12:52.347Z,5.32
2023-03-13T10:16:04.608Z,5.20
2023-03-13T10:19:17.905Z,5.45
2023-03-13T10:22:36.524Z,6.25
2023-03-13T10:25:46.528Z,7.20
2023-03-13T10:33:08.522Z,6.80
2023-03-13T10:36:26.584Z,6.35
2023-03-13T10:39:35.449Z,4.90
2023-03-13T10:42:49.567Z,6.72
2023-03-13T10:45:58.402Z,8.50
2023-03-13T10:49:53.545Z,7.43
2023-03-13T10:53:28.567Z,5.22
2023-03-13T10:56:37.583Z,6.47
2023-03-13T10:59:49.024Z,5.55
2023-03-13T11:03:03.824Z,5.85
2023-03-13T11:06:23.746Z,5.47
2023-03-13T11:09:32.625Z,5.28
2023-03-13T11:12:53.562Z,5.45
2023-03-13T11:16:20.727Z,5.80
2023-03-13T11:20:23.560Z,5.45
2023-03-13T11:23:39.867Z,6.63
2023-03-13T11:27:08.641Z,5.57
2023-03-13T11:30:52.586Z,5.20
2023-03-13T11:34:14.337Z,5.32
2023-03-13T11:37:29.597Z,4.70
2023-03-13T11:41:02.605Z,5.57
2023-03-13T11:44:34.613Z,5.65
2023-03-13T11:48:18.594Z,5.93
2023-03-13T11:51:38.875Z,5.25
2023-03-13T11:55:26.647Z,5.03
2023-03-13T11:58:52.833Z,5.70
2023-03-13T12:02:21.711Z,5.28
2023-03-13T12:05:45.705Z,6.28
2023-03-13T12:09:00.638Z,5.55
2023-03-13T12:12:18.679Z,6.12
2023-03-13T12:15:32.647Z,5.17
2023-03-13T12:19:35.630Z,5.15
2023-03-13T12:22:52.631Z,5.05
2023-03-13T12:26:14.770Z,5.70
2023-03-13T12:29:44.617Z,5.55
2023-03-13T12:33:11.598Z,6.03
2023-03-13T12:36:39.706Z,5.60
2023-03-13T12:40:12.072Z,4.43
2023-03-13T12:43:37.701Z,4.90
2023-03-13T12:46:55.792Z,4.35
2023-03-13T12:50:33.604Z,4.20
2023-03-13T12:53:56.034Z,4.40
2023-03-13T12:57:37.750Z,4.12
2023-03-13T13:00:50.609Z,3.62
2023-03-13T13:04:11.662Z,2.97
2023-03-13T13:07:32.706Z,3.70
2023-03-13T13:10:48.621Z,4.70
2023-03-13T13:14:03.616Z,3.87
2023-03-13T13:17:34.660Z,4.22
2023-03-13T13:20:48.287Z,6.18
2023-03-13T13:24:35.614Z,3.37
2023-03-13T13:27:47.257Z,3.80
2023-03-13T13:30:58.885Z,3.58
2023-03-13T13:34:13.670Z,3.30
2023-03-13T13:37:30.057Z,3.65
2023-03-13T13:41:11.748Z,3.13
2023-03-13T13:44:28.683Z,3.22
2023-03-13T13:47:37.577Z,2.25
2023-03-13T13:51:08.753Z,3.08
2023-03-13T13:55:00.694Z,3.12
2023-03-13T13:58:20.147Z,3.23
2023-03-13T14:01:32.714Z,3.12
2023-03-13T14:04:55.716Z,3.10
2023-03-13T14:08:12.674Z,2.75
2023-03-13T14:11:33.726Z,2.97
2023-03-13T14:14:48.674Z,2.83
2023-03-13T14:18:03.664Z,2.55
2023-03-13T14:21:18.706Z,2.90
2023-03-13T14:24:20.578Z,2.47
2023-03-13T14:27:35.714Z,2.37
2023-03-13T14:30:43.541Z,2.77
2023-03-13T14:33:59.700Z,2.25
2023-03-13T14:37:17.989Z,1.87
2023-03-13T14:40:29.669Z,1.85
2023-03-13T14:43:49.744Z,1.87
2023-03-13T14:47:10.830Z,1.30
2023-03-13T14:50:23.966Z,1.80
2023-03-13T14:53:38.727Z,2.00
2023-03-13T14:56:47.434Z,2.45
2023-03-13T15:00:23.697Z,1.85
2023-03-13T15:03:37.850Z,1.67
2023-03-13T15:06:46.981Z,1.70
2023-03-13T15:10:01.795Z,2.10
2023-03-13T15:13:24.068Z,5.00
2023-03-13T15:16:34.649Z,1.58
2023-03-13T15:20:09.808Z,2.30
2023-03-13T15:23:19.960Z,2.20
2023-03-13T15:26:31.790Z,1.75
2023-03-13T15:29:41.666Z,2.15
2023-03-13T15:32:50.962Z,1.98
2023-03-13T15:35:59.447Z,1.80
2023-03-13T15:39:08.756Z,1.40
2023-03-13T15:42:33.259Z,1.50
2023-03-13T15:46:05.785Z,1.62
2023-03-13T15:49:21.242Z,1.55
2023-03-13T15:52:35.753Z,1.55
2023-03-13T15:55:37.542Z,1.50
2023-03-13T15:58:53.868Z,1.90
2023-03-13T16:02:02.779Z,1.90
2023-03-13T16:05:11.506Z,1.90
2023-03-13T16:08:36.569Z,2.10
2023-03-13T16:11:45.587Z,1.80
2023-03-13T16:14:53.709Z,2.08
2023-03-13T16:18:02.877Z,2.20
2023-03-13T16:21:24.830Z,1.62
2023-03-13T16:24:39.765Z,1.80
2023-03-13T16:27:42.165Z,1.73
2023-03-13T16:30:56.766Z,1.60
2023-03-13T16:33:59.930Z,1.62
2023-03-13T16:37:21.780Z,1.70
2023-03-13T16:40:35.755Z,1.90
2023-03-13T16:43:45.413Z,2.00
2023-03-13T16:47:05.070Z,1.90
2023-03-13T16:50:31.488Z,1.92
2023-03-13T16:53:39.870Z,1.50
2023-03-13T16:56:48.328Z,2.00
2023-03-13T16:59:57.771Z,2.00
2023-03-13T17:03:06.553Z,2.20
2023-03-13T17:10:06.763Z,2.70
2023-03-13T17:13:15.411Z,2.30
2023-03-13T17:16:29.743Z,2.20
2023-03-13T17:19:38.321Z,2.12
2023-03-13T17:22:46.717Z,2.03
2023-03-13T17:25:55.536Z,2.22
2023-03-13T17:29:04.739Z,3.78
2023-03-13T17:32:14.673Z,2.47
2023-03-13T17:35:23.752Z,2.12
2023-03-13T17:38:32.371Z,1.87
2023-03-13T17:41:41.785Z,1.83
2023-03-13T17:44:50.382Z,2.60
2023-03-13T17:48:04.794Z,2.60
2023-03-13T17:51:14.646Z,2.05
2023-03-13T17:54:30.728Z,2.50
2023-03-13T17:57:38.869Z,2.78
2023-03-13T18:00:53.789Z,2.40
2023-03-13T18:04:02.768Z,2.60
2023-03-13T18:07:22.770Z,2.37
2023-03-13T18:10:47.930Z,2.30
2023-03-13T18:13:50.081Z,2.67
2023-03-13T18:17:04.795Z,2.42
2023-03-13T18:20:17.336Z,2.23
2023-03-13T18:23:25.813Z,2.55
2023-03-13T18:26:43.758Z,2.70
2023-03-13T18:29:47.500Z,2.87
2023-03-13T18:33:02.788Z,2.90
2023-03-13T18:36:14.178Z,3.30
2023-03-13T18:39:29.793Z,4.43
2023-03-13T18:42:38.428Z,3.67
2023-03-13T18:45:46.830Z,3.95
2023-03-13T18:49:02.835Z,3.40
2023-03-13T18:52:04.861Z,3.23
2023-03-13T18:55:19.837Z,3.60
2023-03-13T18:58:21.673Z,3.85
2023-03-13T19:01:37.949Z,3.62
2023-03-13T19:05:21.147Z,4.78
2023-03-13T19:08:29.877Z,3.77
2023-03-13T19:11:46.021Z,4.30
2023-03-13T19:14:54.825Z,4.72
2023-03-13T19:18:10.894Z,4.55
2023-03-13T19:21:29.867Z,3.97
2023-03-13T19:24:44.866Z,3.63
2023-03-13T19:27:47.844Z,3.90
2023-03-13T19:31:03.060Z,3.62
2023-03-13T19:34:05.676Z,3.53
2023-03-13T19:37:22.883Z,3.75
2023-03-13T19:40:27.218Z,3.17
2023-03-13T19:43:42.897Z,3.47
2023-03-13T19:46:51.850Z,4.15
2023-03-13T19:50:06.874Z,4.07
2023-03-13T19:53:15.956Z,3.78
2023-03-13T19:56:28.924Z,4.20
2023-03-13T19:59:37.461Z,3.50
2023-03-13T20:02:46.140Z,4.90
2023-03-13T20:05:54.673Z,4.10
2023-03-13T20:09:04.920Z,4.30
2023-03-13T20:12:20.253Z,4.30
2023-03-13T20:15:28.878Z,4.32
2023-03-13T20:18:40.032Z,4.72
2023-03-13T20:21:48.925Z,4.72
2023-03-13T20:24:57.498Z,5.18
2023-03-13T20:28:06.149Z,4.50
2023-03-13T20:31:23.922Z,4.80
2023-03-13T20:34:26.114Z,4.82
2023-03-13T20:37:40.929Z,4.62
2023-03-13T20:40:57.927Z,5.82
2023-03-13T20:44:06.609Z,4.87
2023-03-13T20:47:14.894Z,4.97
2023-03-13T20:50:30.895Z,4.50
2023-03-13T20:53:35.426Z,4.45
2023-03-13T20:56:49.863Z,4.62
2023-03-13T20:59:57.860Z,4.60
2023-03-13T21:03:08.508Z,4.70
2023-03-13T21:06:24.866Z,4.95
2023-03-13T21:09:46.918Z,5.30
2023-03-13T21:13:01.898Z,5.30
2023-03-13T21:16:10.664Z,4.77
2023-03-13T21:19:18.909Z,4.43
2023-03-13T21:22:33.867Z,5.30
2023-03-13T21:25:35.820Z,4.90
2023-03-13T21:28:50.890Z,5.30
2023-03-13T21:31:53.039Z,4.83
2023-03-13T21:35:07.901Z,5.60
2023-03-13T21:38:15.901Z,7.43
2023-03-13T21:41:30.975Z,4.90
2023-03-13T21:44:39.948Z,5.18
2023-03-13T21:47:48.511Z,5.10
2023-03-13T21:51:04.922Z,5.70
2023-03-13T21:54:12.889Z,5.62
2023-03-13T21:57:27.875Z,5.45
2023-03-13T22:00:35.983Z,5.12
2023-03-13T22:03:44.578Z,5.10
2023-03-13T22:06:52.905Z,4.53
2023-03-13T22:10:15.893Z,5.10
2023-03-13T22:13:18.669Z,4.97
2023-03-13T22:16:32.882Z,4.78
2023-03-13T22:19:34.749Z,4.83
2023-03-13T22:22:49.958Z,5.32
2023-03-13T22:26:05.926Z,5.47
2023-03-13T22:29:08.233Z,5.70
2023-03-13T22:32:22.950Z,5.35
2023-03-13T22:35:37.927Z,6.40
2023-03-13T22:38:45.937Z,5.47
2023-03-13T22:42:00.942Z,5.22
2023-03-13T22:45:03.370Z,5.60
2023-03-13T22:48:17.947Z,4.90
2023-03-13T22:51:19.858Z,5.37
2023-03-13T22:54:34.917Z,5.37
2023-03-13T22:57:36.788Z,5.05
2023-03-13T23:00:51.984Z,5.05
2023-03-13T23:03:53.999Z,5.78
2023-03-13T23:07:08.963Z,5.00
2023-03-13T23:10:11.902Z,5.22
2023-03-13T23:13:33.937Z,5.60
2023-03-13T23:16:42.045Z,5.43
2023-03-13T23:19:56.946Z,5.78
2023-03-13T23:22:59.324Z,5.60
2023-03-13T23:26:16.939Z,5.68
2023-03-13T23:29:18.811Z,5.10
2023-03-13T23:32:34.951Z,4.97
2023-03-13T23:35:38.585Z,5.35
2023-03-13T23:38:59.000Z,5.30
2023-03-13T23:42:07.994Z,5.35
2023-03-13T23:45:23.954Z,5.40
2023-03-13T23:48:33.063Z,6.10
2023-03-13T23:52:09.926Z,5.40
2023-03-13T23:55:19.002Z,5.60
2023-03-13T23:58:28.424Z,5.62
